Airfield :
LOGIN :

Register | Disclaimer

   EN    FR    IT 

 










Legend :    VFR   Marginal VFR   IFR   Intensive IFR   Very Intensive IFR
Visi :
Ceiling :
>= 8 km
>= 3000ft
5 to 8 km
1000 to 3000 ft
1500m to 5 km
500 to 1000 ft
800 to 1500m
200 to 500 ft
< 800m
< 200 ft
Symbols :   Thunderstorms  Fog  Heavy snow  Heavy precipitations  Wind > 20 kt
SIGMETs :     Misc.  Thunderstorms  Icing  Turbulence  Mountain Waves  Volcanic Ashes







- Airport Elevation : 203 ft
- IATA code : XMJ
- Download approach charts


LFBM - Mont-De-Marsan

CURRENT METAR :
  • 202100Z AUTO 00000KT CAVOK 06/M01 Q1031 NOSIG

EXPIRED METARs :
  • 202030Z AUTO 34003KT CAVOK 07/M02 Q1031 NOSIG
  • 202000Z AUTO 36003KT CAVOK 07/M01 Q1031
  • 201930Z AUTO 02003KT CAVOK 08/M01 Q1031 NOSIG
  • 201900Z AUTO 02003KT CAVOK 09/M02 Q1031 NOSIG
  • 201830Z AUTO 36004KT CAVOK 11/M04 Q1031 NOSIG

TAF TAF LFBM
Valid from the 20 at 21:00 until the 21 at 21:00 UTC


202000Z 2021/2121 VRB03KT CAVOK
No reported NOTAMs for that airfield.



MET'MAP, your aeronautical weather chart ! - Copyright ORBIFLY December 2007 - Disclaimer

ORBIFLY MET'MAP TEAM :

Programming & Development : Alexandra Zaïnal
Concept & Development : Baudouin d'Aumeries
Co-Development & Prog : Marc-Olivier Méhu
Technical & hardware support : Manuel Goepfert

Contact : metmap@orbifly.com




SOURCES & CREDITS :

   NOAA